Smit Nicobar — ORRT — position and weather

sailwx.info

Track history (hours):
 
Tides and Currents Weather Stations Pressure Air Temp Water Temp Dewpoint Dewpoint Depression Visibility Wind Speed Wind Dir Waves Ship Positions

Smit Nicobar

Last reported at 2017-Sep-22 01:58 UTC. Time now 2017-Sep-22 04:38 UTC.
Position N 43°21' W 003°03'.

Length 71 m; draft 5.5 m.

Type: Towing. MMSI: 205684000.

Date/timePositionNaut miles runAvg speedWind from/ knotsBaromVisibWave heightAir tempDewpointWater temp
2017-Sep-22 01:58N 43°21' W 003°03'0 0.0
2017-Sep-22 01:28N 43°21' W 003°03'0 0.0
2017-Sep-22 00:58N 43°21' W 003°03'0 0.0
2017-Sep-22 00:28N 43°21' W 003°03'0 0.0
2017-Sep-21 23:58N 43°21' W 003°03'0 0.0
2017-Sep-21 23:28N 43°21' W 003°03'0 0.0
2017-Sep-21 22:58N 43°21' W 003°03'0 0.0
2017-Sep-21 22:28N 43°21' W 003°03'0 0.0
2017-Sep-21 21:58N 43°21' W 003°03'0 0.0
2017-Sep-21 21:28N 43°21' W 003°03'0 0.0
2017-Sep-21 20:58N 43°21' W 003°03'0 0.0
2017-Sep-21 20:28N 43°21' W 003°03'0 0.0
2017-Sep-21 19:58N 43°21' W 003°03'0 0.0
2017-Sep-21 19:28N 43°21' W 003°03'0 0.0
2017-Sep-21 18:58N 43°21' W 003°03'0 0.0
2017-Sep-21 18:28N 43°21' W 003°03'0 0.0
2017-Sep-21 17:58N 43°21' W 003°03'0 0.0
2017-Sep-21 17:28N 43°21' W 003°03'0 0.0
2017-Sep-21 16:58N 43°21' W 003°03'0 0.0
2017-Sep-21 16:28N 43°21' W 003°03'0 0.0
2017-Sep-21 15:58N 43°21' W 003°03'0 0.0
2017-Sep-21 15:28N 43°21' W 003°03'0 0.0
2017-Sep-21 14:58N 43°21' W 003°03'0 0.0
2017-Sep-21 14:28N 43°21' W 003°03'0 0.0
2017-Sep-21 06:37N 43°21' W 003°03'0 0.0
2017-Sep-21 06:30N 43°21' W 003°03'0 0.0
2017-Sep-21 06:00N 43°21' W 003°03'0 0.0
2017-Sep-21 05:30N 43°21' W 003°03'0 0.0
2017-Sep-21 05:00N 43°21' W 003°03'0 0.0
2017-Sep-21 04:30N 43°21' W 003°03'0 0.0
2017-Sep-21 04:00N 43°21' W 003°03'0 0.0
2017-Sep-21 03:30N 43°21' W 003°03'0 0.0
2017-Sep-21 03:00N 43°21' W 003°03'0 0.0
2017-Sep-21 02:30N 43°21' W 003°03'0 0.0
2017-Sep-21 02:00N 43°21' W 003°03'0 0.0
2017-Sep-21 01:30N 43°21' W 003°03'0 0.0
2017-Sep-21 01:01N 43°21' W 003°03'0 0.0
2017-Sep-21 00:30N 43°21' W 003°03'0 0.0
2017-Sep-21 00:00N 43°21' W 003°03'0 0.1
2017-Sep-20 23:31N 43°21' W 003°03'2 4.9
2017-Sep-20 23:00N 43°23' W 003°05'3 6.3
2017-Sep-20 22:30N 43°26' W 003°08'3 5.9
2017-Sep-20 22:00N 43°28' W 003°11'3 6.1
2017-Sep-20 21:30N 43°30' W 003°14'3 5.7
2017-Sep-20 21:00N 43°31' W 003°18'3 5.7
2017-Sep-20 20:30N 43°33' W 003°21'3 6.0
2017-Sep-20 20:00N 43°35' W 003°24'2 4.9
2017-Sep-20 19:30N 43°36' W 003°27'1 2.2
2017-Sep-20 19:00N 43°37' W 003°28'1 1.6
2017-Sep-20 18:30N 43°37' W 003°29'1 1.2
2017-Sep-20 18:01N 43°38' W 003°30'1 1.3
2017-Sep-20 16:54N 43°38' W 003°31'1 1.4
2017-Sep-20 16:30N 43°39' W 003°32'1 1.3
2017-Sep-20 15:58N 43°39' W 003°33'1 1.5
2017-Sep-20 15:26N 43°40' W 003°34'1 1.6
2017-Sep-20 15:00N 43°40' W 003°34'2 2.4
2017-Sep-20 14:00N 43°42' W 003°37'2 3.3
2017-Sep-20 13:27N 43°43' W 003°39'60 9.5
2017-Sep-20 07:09N 43°55' W 004°60'210.8
2017-Sep-20 07:00N 43°55' W 005°02'711.2
2017-Sep-20 06:22N 43°55' W 005°12'411.1
2017-Sep-20 06:00N 43°55' W 005°17'610.9
2017-Sep-20 05:27N 43°55' W 005°26'1111.0
2017-Sep-20 04:27N 43°55' W 005°41'322 8.8
2017-Sep-18 15:48N 39°32' W 009°51'311.6
2017-Sep-18 15:30N 39°29' W 009°51'611.7
2017-Sep-18 15:00N 39°23' W 009°51'611.7
2017-Sep-18 14:31N 39°17' W 009°51'611.6
2017-Sep-18 14:01N 39°11' W 009°51'611.9
2017-Sep-18 13:31N 39°05' W 009°51'611.9
2017-Sep-18 13:00N 38°59' W 009°51'612.3
2017-Sep-18 12:31N 38°53' W 009°51'612.5
2017-Sep-18 12:01N 38°47' W 009°51'612.1
2017-Sep-18 11:30N 38°41' W 009°51'611.8
2017-Sep-18 11:00N 38°35' W 009°49'611.5
2017-Sep-18 10:30N 38°30' W 009°47'812.2
2017-Sep-18 09:51N 38°22' W 009°45'512.0
2017-Sep-18 09:26N 38°17' W 009°44'712.5
2017-Sep-18 08:53N 38°10' W 009°42'512.4
2017-Sep-18 08:30N 38°06' W 009°40'612.2
2017-Sep-18 08:00N 37°60' W 009°39'712.3
2017-Sep-18 07:28N 37°53' W 009°37'612.3
2017-Sep-18 07:00N 37°48' W 009°36'612.6
2017-Sep-18 06:30N 37°42' W 009°33'1412.3
2017-Sep-18 05:21N 37°28' W 009°30'612.8
2017-Sep-18 04:55N 37°22' W 009°28'1012.7
2017-Sep-18 04:06N 37°12' W 009°25'1012.6
2017-Sep-18 03:17N 37°02' W 009°22'812.3
2017-Sep-18 02:38N 36°54' W 009°20'212.3
2017-Sep-18 02:30N 36°53' W 009°20'2012.5
2017-Sep-18 00:56N 36°41' W 008°60'612.8
2017-Sep-18 00:30N 36°40' W 008°53'1212.6
2017-Sep-17 23:33N 36°36' W 008°39'112.8
2017-Sep-17 23:30N 36°36' W 008°38'16012.0
2017-Sep-17 10:09N 36°01' W 005°24'210.4
2017-Sep-17 10:00N 36°01' W 005°22'510.6
2017-Sep-17 09:30N 36°02' W 005°16'  
2017-Sep-14 17:42N 37°38' E 009°06'17710.1
2017-Sep-14 00:13N 36°52' E 012°41'210.2
2017-Sep-14 00:00N 36°51' E 012°43'510.2
2017-Sep-13 23:30N 36°49' E 012°49'510.3
2017-Sep-13 23:00N 36°47' E 012°55'510.3
2017-Sep-13 22:30N 36°45' E 013°01'510.1
2017-Sep-13 22:00N 36°43' E 013°07'510.2
2017-Sep-13 21:30N 36°41' E 013°12'510.3
2017-Sep-13 21:00N 36°38' E 013°18'510.2
2017-Sep-13 20:30N 36°36' E 013°24'510.4
2017-Sep-13 20:00N 36°34' E 013°30'510.5
2017-Sep-13 19:30N 36°32' E 013°36'610.5
2017-Sep-13 18:58N 36°30' E 013°42'510.1
2017-Sep-13 18:28N 36°27' E 013°48'4 9.7
2017-Sep-13 18:00N 36°26' E 013°53'5 9.6
2017-Sep-13 17:30N 36°24' E 013°58'5 9.6
2017-Sep-13 17:00N 36°22' E 014°03'5 9.6
2017-Sep-13 16:30N 36°21' E 014°09'5 9.8
2017-Sep-13 16:01N 36°21' E 014°15'5 9.6
2017-Sep-13 15:30N 36°20' E 014°21'5 9.5
2017-Sep-13 15:00N 36°20' E 014°27'5 9.6
2017-Sep-13 14:30N 36°20' E 014°33'5 9.5
2017-Sep-13 14:01N 36°20' E 014°39'5 9.5
2017-Sep-13 13:30N 36°20' E 014°45'5 9.3
2017-Sep-13 12:56N 36°19' E 014°52'4110.1
2017-Sep-13 08:50N 36°17' E 015°43'  
Track history (hours):
 
Tides and Currents Weather Stations Pressure Air Temp Water Temp Dewpoint Dewpoint Depression Visibility Wind Speed Wind Dir Waves Ship Positions

Smit Nicobar

Last reported at 2017-Sep-22 01:58 UTC. Time now 2017-Sep-22 04:38 UTC.
Position N 43°21' W 003°03'.

Length 71 m; draft 5.5 m.

Type: Towing. MMSI: 205684000.

Date/timePositionNaut miles runAvg speedWind from/ knotsBaromVisibWave heightAir tempDewpointWater temp
2017-Sep-22 01:58N 43°21' W 003°03'0 0.0
2017-Sep-22 01:28N 43°21' W 003°03'0 0.0
2017-Sep-22 00:58N 43°21' W 003°03'0 0.0
2017-Sep-22 00:28N 43°21' W 003°03'0 0.0
2017-Sep-21 23:58N 43°21' W 003°03'0 0.0
2017-Sep-21 23:28N 43°21' W 003°03'0 0.0
2017-Sep-21 22:58N 43°21' W 003°03'0 0.0
2017-Sep-21 22:28N 43°21' W 003°03'0 0.0
2017-Sep-21 21:58N 43°21' W 003°03'0 0.0
2017-Sep-21 21:28N 43°21' W 003°03'0 0.0
2017-Sep-21 20:58N 43°21' W 003°03'0 0.0
2017-Sep-21 20:28N 43°21' W 003°03'0 0.0
2017-Sep-21 19:58N 43°21' W 003°03'0 0.0
2017-Sep-21 19:28N 43°21' W 003°03'0 0.0
2017-Sep-21 18:58N 43°21' W 003°03'0 0.0
2017-Sep-21 18:28N 43°21' W 003°03'0 0.0
2017-Sep-21 17:58N 43°21' W 003°03'0 0.0
2017-Sep-21 17:28N 43°21' W 003°03'0 0.0
2017-Sep-21 16:58N 43°21' W 003°03'0 0.0
2017-Sep-21 16:28N 43°21' W 003°03'0 0.0
2017-Sep-21 15:58N 43°21' W 003°03'0 0.0
2017-Sep-21 15:28N 43°21' W 003°03'0 0.0
2017-Sep-21 14:58N 43°21' W 003°03'0 0.0
2017-Sep-21 14:28N 43°21' W 003°03'0 0.0
2017-Sep-21 06:37N 43°21' W 003°03'0 0.0
2017-Sep-21 06:30N 43°21' W 003°03'0 0.0
2017-Sep-21 06:00N 43°21' W 003°03'0 0.0
2017-Sep-21 05:30N 43°21' W 003°03'0 0.0
2017-Sep-21 05:00N 43°21' W 003°03'0 0.0
2017-Sep-21 04:30N 43°21' W 003°03'0 0.0
2017-Sep-21 04:00N 43°21' W 003°03'0 0.0
2017-Sep-21 03:30N 43°21' W 003°03'0 0.0
2017-Sep-21 03:00N 43°21' W 003°03'0 0.0
2017-Sep-21 02:30N 43°21' W 003°03'0 0.0
2017-Sep-21 02:00N 43°21' W 003°03'0 0.0
2017-Sep-21 01:30N 43°21' W 003°03'0 0.0
2017-Sep-21 01:01N 43°21' W 003°03'0 0.0
2017-Sep-21 00:30N 43°21' W 003°03'0 0.0
2017-Sep-21 00:00N 43°21' W 003°03'0 0.1
2017-Sep-20 23:31N 43°21' W 003°03'2 4.9
2017-Sep-20 23:00N 43°23' W 003°05'3 6.3
2017-Sep-20 22:30N 43°26' W 003°08'3 5.9
2017-Sep-20 22:00N 43°28' W 003°11'3 6.1
2017-Sep-20 21:30N 43°30' W 003°14'3 5.7
2017-Sep-20 21:00N 43°31' W 003°18'3 5.7
2017-Sep-20 20:30N 43°33' W 003°21'3 6.0
2017-Sep-20 20:00N 43°35' W 003°24'2 4.9
2017-Sep-20 19:30N 43°36' W 003°27'1 2.2
2017-Sep-20 19:00N 43°37' W 003°28'1 1.6
2017-Sep-20 18:30N 43°37' W 003°29'1 1.2
2017-Sep-20 18:01N 43°38' W 003°30'1 1.3
2017-Sep-20 16:54N 43°38' W 003°31'1 1.4
2017-Sep-20 16:30N 43°39' W 003°32'1 1.3
2017-Sep-20 15:58N 43°39' W 003°33'1 1.5
2017-Sep-20 15:26N 43°40' W 003°34'1 1.6
2017-Sep-20 15:00N 43°40' W 003°34'2 2.4
2017-Sep-20 14:00N 43°42' W 003°37'2 3.3
2017-Sep-20 13:27N 43°43' W 003°39'60 9.5
2017-Sep-20 07:09N 43°55' W 004°60'210.8
2017-Sep-20 07:00N 43°55' W 005°02'711.2
2017-Sep-20 06:22N 43°55' W 005°12'411.1
2017-Sep-20 06:00N 43°55' W 005°17'610.9
2017-Sep-20 05:27N 43°55' W 005°26'1111.0
2017-Sep-20 04:27N 43°55' W 005°41'322 8.8
2017-Sep-18 15:48N 39°32' W 009°51'311.6
2017-Sep-18 15:30N 39°29' W 009°51'611.7
2017-Sep-18 15:00N 39°23' W 009°51'611.7
2017-Sep-18 14:31N 39°17' W 009°51'611.6
2017-Sep-18 14:01N 39°11' W 009°51'611.9
2017-Sep-18 13:31N 39°05' W 009°51'611.9
2017-Sep-18 13:00N 38°59' W 009°51'612.3
2017-Sep-18 12:31N 38°53' W 009°51'612.5
2017-Sep-18 12:01N 38°47' W 009°51'612.1
2017-Sep-18 11:30N 38°41' W 009°51'611.8
2017-Sep-18 11:00N 38°35' W 009°49'611.5
2017-Sep-18 10:30N 38°30' W 009°47'812.2
2017-Sep-18 09:51N 38°22' W 009°45'512.0
2017-Sep-18 09:26N 38°17' W 009°44'712.5
2017-Sep-18 08:53N 38°10' W 009°42'512.4
2017-Sep-18 08:30N 38°06' W 009°40'612.2
2017-Sep-18 08:00N 37°60' W 009°39'712.3
2017-Sep-18 07:28N 37°53' W 009°37'612.3
2017-Sep-18 07:00N 37°48' W 009°36'612.6
2017-Sep-18 06:30N 37°42' W 009°33'1412.3
2017-Sep-18 05:21N 37°28' W 009°30'612.8
2017-Sep-18 04:55N 37°22' W 009°28'1012.7
2017-Sep-18 04:06N 37°12' W 009°25'1012.6
2017-Sep-18 03:17N 37°02' W 009°22'812.3
2017-Sep-18 02:38N 36°54' W 009°20'212.3
2017-Sep-18 02:30N 36°53' W 009°20'2012.5
2017-Sep-18 00:56N 36°41' W 008°60'612.8
2017-Sep-18 00:30N 36°40' W 008°53'1212.6
2017-Sep-17 23:33N 36°36' W 008°39'112.8
2017-Sep-17 23:30N 36°36' W 008°38'16012.0
2017-Sep-17 10:09N 36°01' W 005°24'210.4
2017-Sep-17 10:00N 36°01' W 005°22'510.6
2017-Sep-17 09:30N 36°02' W 005°16'  
2017-Sep-14 17:42N 37°38' E 009°06'17710.1
2017-Sep-14 00:13N 36°52' E 012°41'210.2
2017-Sep-14 00:00N 36°51' E 012°43'510.2
2017-Sep-13 23:30N 36°49' E 012°49'510.3
2017-Sep-13 23:00N 36°47' E 012°55'510.3
2017-Sep-13 22:30N 36°45' E 013°01'510.1
2017-Sep-13 22:00N 36°43' E 013°07'510.2
2017-Sep-13 21:30N 36°41' E 013°12'510.3
2017-Sep-13 21:00N 36°38' E 013°18'510.2
2017-Sep-13 20:30N 36°36' E 013°24'510.4
2017-Sep-13 20:00N 36°34' E 013°30'510.5
2017-Sep-13 19:30N 36°32' E 013°36'610.5
2017-Sep-13 18:58N 36°30' E 013°42'510.1
2017-Sep-13 18:28N 36°27' E 013°48'4 9.7
2017-Sep-13 18:00N 36°26' E 013°53'5 9.6
2017-Sep-13 17:30N 36°24' E 013°58'5 9.6
2017-Sep-13 17:00N 36°22' E 014°03'5 9.6
2017-Sep-13 16:30N 36°21' E 014°09'5 9.8
2017-Sep-13 16:01N 36°21' E 014°15'5 9.6
2017-Sep-13 15:30N 36°20' E 014°21'5 9.5
2017-Sep-13 15:00N 36°20' E 014°27'5 9.6
2017-Sep-13 14:30N 36°20' E 014°33'5 9.5
2017-Sep-13 14:01N 36°20' E 014°39'5 9.5
2017-Sep-13 13:30N 36°20' E 014°45'5 9.3
2017-Sep-13 12:56N 36°19' E 014°52'4110.1
2017-Sep-13 08:50N 36°17' E 015°43'  

Dump ship's entire track history